Monday, December 18, 2017, 12:45 PM GMT
Back to Local

CWST, La Pocatiere

Location: , , Canada Lat: 47.35
Local Time: 12:45 PM GMT (12:45 GMT) Lon: -70.033
Time Zone: GMT Elev: 101 ft

Show me the last for .
Show Coded

Time T Td Feel RH Dir Speed Gust Alt SLP Vis Weather Sky Remarks
2017-12-18 12:00 2 -6 -11 68 120° 7 - - 30.11 0 None
2017-12-18 11:00 3 -5 -8 67 140° 6 - - 30.12 0 None
2017-12-18 10:00 1 -8 -14 65 120° 8 - - 30.14 0 None
2017-12-18 09:00 4 -5 -12 65 210° 13 - - 30.17 0 None
2017-12-18 08:00 4 -6 -13 63 210° 12 - - 30.19 0 None
2017-12-18 07:00 1 -9 -11 62 200° 7 - - 30.20 0 None
2017-12-18 06:00 2 -7 -15 62 220° 13 - - 30.21 0 None
2017-12-18 05:00 2 -8 -16 60 210° 14 - - 30.22 0 None
2017-12-18 04:00 -3 -12 -13 64 140° 5 - - 30.23 0 None
2017-12-18 03:00 1 -10 -11 58 150° 6 - - 30.23 0 None
2017-12-18 02:00 3 -7 -14 64 220° 12 - - 30.23 0 None
2017-12-18 01:00 3 -6 -14 64 220° 14 - - 30.23 0 Peak wind: 20 mph (18 kts) from 210° at 42 min
2017-12-18 00:00 4 -5 -13 65 220° 14 - - 30.23 0 Peak wind: 23 mph (20 kts) from 230° at 14 min
2017-12-17 23:00 5 -4 -17 66 220° 17 23 - 30.22 0 Peak wind: 23 mph (20 kts) from 210° at 11 min
2017-12-17 22:00 6 -4 -13 63 210° 17 - - 30.22 0 Peak wind: 23 mph (20 kts) from 220° at 48 min
2017-12-17 21:00 7 -3 -14 63 210° 15 22 - 30.21 0 Peak wind: 21 mph (19 kts) from 220° at 45 min
2017-12-17 20:00 6 -3 -13 62 220° 13 18 - 30.20 0 None
2017-12-17 19:00 6 -4 -10 61 220° 13 - - 30.20 0 None
2017-12-17 18:00 6 -3 -11 65 220° 14 - - 30.21 0 None
2017-12-17 17:00 6 -3 -9 66 220° 12 - - 30.21 0 None
2017-12-17 16:00 5 -4 -10 66 220° 9 - - 30.22 0 None
2017-12-17 15:00 4 -4 -5 65 240° 5 - - 30.23 0 None
2017-12-17 14:00 0 -7 -15 70 230° 9 - - 30.22 0 None
2017-12-17 13:00 -5 -10 -21 76 220° 9 - - 30.21 0 None

Support USWX by starting your Amazon purchase here.